Time;durP1;ratioP1;P1;durP2;ratioP2;P2;SDS_P1;SDS_P2;PMS_P1;PMS_P2;Temp;Humidity;BMP_temperature;BMP_pressure;BME280_temperature;BME280_humidity;BME280_pressure;Samples;Min_cycle;Max_cycle;Signal;HPM_P1;HPM_P2
2023/06/03 00:01:43;;;;;;;4.10;2.13;;;15.60;55.20;;;;;;946678;149;27402;-74
2023/06/03 00:04:11;;;;;;;5.73;3.17;;;15.50;55.10;;;;;;946294;149;27431;-74
2023/06/03 00:06:36;;;;;;;4.53;2.83;;;15.50;55.30;;;;;;946130;149;27337;-74
2023/06/03 00:09:02;;;;;;;5.67;3.10;;;15.50;55.40;;;;;;945736;149;27409;-74
2023/06/03 00:11:29;;;;;;;7.65;3.40;;;15.50;55.50;;;;;;948340;147;27326;-74
2023/06/03 00:13:56;;;;;;;4.57;2.77;;;15.40;55.60;;;;;;930886;150;27401;-74
2023/06/03 00:16:22;;;;;;;4.60;2.80;;;15.40;55.70;;;;;;950370;147;27328;-74
2023/06/03 00:18:49;;;;;;;3.23;2.20;;;15.40;55.80;;;;;;952088;147;27253;-74
2023/06/03 00:21:16;;;;;;;2.13;1.77;;;15.30;55.90;;;;;;943207;149;27467;-74
2023/06/03 00:23:42;;;;;;;3.20;1.90;;;15.30;55.90;;;;;;943078;149;27357;-74
2023/06/03 00:26:09;;;;;;;6.08;2.22;;;15.20;56.00;;;;;;942782;149;27356;-74
2023/06/03 00:28:35;;;;;;;2.70;1.67;;;15.20;56.20;;;;;;943526;148;27275;-74
2023/06/03 00:31:02;;;;;;;3.07;2.00;;;15.20;56.30;;;;;;943571;148;27353;-74
2023/06/03 00:33:28;;;;;;;3.33;2.20;;;15.10;56.40;;;;;;952436;147;27331;-74
2023/06/03 00:35:55;;;;;;;5.13;2.30;;;15.10;56.50;;;;;;947116;148;27319;-74
2023/06/03 00:38:22;;;;;;;4.87;2.03;;;15.00;56.60;;;;;;947446;148;27346;-74
2023/06/03 00:40:48;;;;;;;2.37;2.10;;;15.00;56.70;;;;;;954471;147;27327;-74
2023/06/03 00:43:15;;;;;;;2.93;2.17;;;14.90;56.90;;;;;;955256;147;27456;-74
2023/06/03 00:45:41;;;;;;;4.13;2.10;;;14.90;57.00;;;;;;946450;148;27356;-74
2023/06/03 00:48:08;;;;;;;2.87;2.13;;;14.90;57.10;;;;;;940736;149;27318;-74
2023/06/03 00:50:35;;;;;;;4.53;2.40;;;14.80;57.10;;;;;;966770;145;27247;-74
2023/06/03 00:53:01;;;;;;;5.23;2.47;;;14.80;57.20;;;;;;947610;148;27372;-74
2023/06/03 00:55:28;;;;;;;2.43;2.10;;;14.80;57.40;;;;;;947297;148;27460;-74
2023/06/03 00:57:54;;;;;;;5.20;2.47;;;14.70;57.50;;;;;;943093;149;27314;-74
2023/06/03 01:00:21;;;;;;;3.77;2.33;;;14.70;57.60;;;;;;966932;145;27382;-74
2023/06/03 01:02:47;;;;;;;5.73;2.30;;;14.60;57.60;;;;;;947451;148;27413;-74
2023/06/03 01:05:14;;;;;;;3.63;2.17;;;14.60;57.60;;;;;;943713;149;27460;-74
2023/06/03 01:07:41;;;;;;;3.53;2.20;;;14.60;57.70;;;;;;963371;146;27402;-74
2023/06/03 01:10:10;;;;;;;3.10;2.40;;;14.60;57.90;;;;;;946258;148;27395;-74
2023/06/03 01:12:57;;;;;;;3.47;2.63;;;14.60;58.00;;;;;;947283;148;27284;-74
2023/06/03 01:15:24;;;;;;;3.87;2.60;;;14.60;57.90;;;;;;941193;149;27421;-74
2023/06/03 01:17:51;;;;;;;3.73;2.00;;;14.60;58.00;;;;;;957341;147;27284;-74
2023/06/03 01:20:17;;;;;;;3.87;2.27;;;14.50;58.00;;;;;;957092;147;27360;-75
2023/06/03 01:22:44;;;;;;;4.40;2.50;;;14.50;58.20;;;;;;958111;147;27885;-75
2023/06/03 01:25:10;;;;;;;3.53;2.30;;;14.50;58.20;;;;;;957352;147;27445;-75
2023/06/03 01:27:37;;;;;;;5.30;2.33;;;14.50;58.30;;;;;;956857;147;27355;-74
2023/06/03 01:30:03;;;;;;;2.90;1.90;;;14.50;58.40;;;;;;946640;149;27355;-75
2023/06/03 01:32:30;;;;;;;2.23;2.00;;;14.50;58.40;;;;;;960180;147;27348;-75
2023/06/03 01:34:56;;;;;;;4.50;2.47;;;14.50;58.70;;;;;;964233;147;27338;-75
2023/06/03 01:37:23;;;;;;;2.83;2.43;;;14.50;58.70;;;;;;969732;145;27338;-75
2023/06/03 01:39:50;;;;;;;3.27;2.77;;;14.50;58.80;;;;;;970003;147;27314;-75
2023/06/03 01:42:16;;;;;;;4.20;2.17;;;14.40;58.80;;;;;;969392;147;27329;-74
2023/06/03 01:44:43;;;;;;;3.87;2.27;;;14.40;58.80;;;;;;969815;147;27271;-74
2023/06/03 01:47:09;;;;;;;7.70;2.70;;;14.40;58.90;;;;;;970361;147;27350;-74
2023/06/03 01:49:36;;;;;;;3.60;2.50;;;14.40;58.90;;;;;;970225;147;27344;-75
2023/06/03 01:52:03;;;;;;;3.80;2.53;;;14.40;59.00;;;;;;969780;147;27322;-75
2023/06/03 01:54:29;;;;;;;6.10;3.27;;;14.30;59.00;;;;;;969916;147;27371;-74
2023/06/03 01:56:56;;;;;;;2.60;2.37;;;14.30;59.20;;;;;;969757;145;27364;-75
2023/06/03 01:59:25;;;;;;;4.47;2.33;;;14.30;59.20;;;;;;969621;147;27354;-73
2023/06/03 02:01:52;;;;;;;3.77;2.30;;;14.30;59.30;;;;;;970113;147;27398;-74
2023/06/03 02:04:18;;;;;;;3.97;2.47;;;14.30;60.00;;;;;;970366;147;27287;-74
2023/06/03 02:06:51;;;;;;;4.83;2.70;;;14.30;59.40;;;;;;969995;147;27428;-74
2023/06/03 02:09:17;;;;;;;3.20;2.40;;;14.20;59.50;;;;;;968700;147;27470;-74
2023/06/03 02:11:43;;;;;;;4.37;2.17;;;14.20;59.50;;;;;;969479;147;27311;-74
2023/06/03 02:14:10;;;;;;;4.13;2.50;;;14.20;59.60;;;;;;970285;145;27368;-74
2023/06/03 02:16:37;;;;;;;3.17;2.70;;;14.20;59.60;;;;;;970138;147;27363;-74
2023/06/03 02:19:06;;;;;;;5.30;2.70;;;14.20;59.80;;;;;;970260;147;27358;-74
2023/06/03 02:21:33;;;;;;;4.03;2.50;;;14.20;59.90;;;;;;968987;147;27271;-75
2023/06/03 02:23:59;;;;;;;4.00;2.53;;;14.20;59.80;;;;;;970297;147;27322;-74
2023/06/03 02:26:26;;;;;;;3.50;2.50;;;14.10;60.00;;;;;;969983;147;27310;-74
2023/06/03 02:28:52;;;;;;;3.10;2.20;;;14.10;60.00;;;;;;970392;145;27345;-75
2023/06/03 02:31:19;;;;;;;3.07;2.33;;;14.10;60.10;;;;;;969891;147;27354;-74
2023/06/03 02:33:45;;;;;;;4.47;2.80;;;14.10;60.20;;;;;;969600;147;27402;-74
2023/06/03 02:36:12;;;;;;;6.57;2.70;;;14.10;60.30;;;;;;951672;147;27439;-74
2023/06/03 02:38:39;;;;;;;4.87;3.10;;;14.10;60.30;;;;;;942145;151;27296;-74
2023/06/03 02:41:05;;;;;;;4.53;2.80;;;14.00;60.30;;;;;;941515;151;27329;-74
2023/06/03 02:43:33;;;;;;;3.87;2.67;;;14.00;60.40;;;;;;941713;152;27349;-74
2023/06/03 02:45:58;;;;;;;4.73;2.80;;;14.00;60.50;;;;;;941136;149;27389;-74
2023/06/03 02:48:25;;;;;;;4.63;3.13;;;14.00;60.60;;;;;;942057;151;27254;-75
2023/06/03 02:50:52;;;;;;;3.17;2.90;;;13.90;60.70;;;;;;942284;149;27931;-74
2023/06/03 02:53:18;;;;;;;2.90;2.60;;;13.90;60.70;;;;;;942325;149;27458;-74
2023/06/03 02:55:45;;;;;;;3.40;2.50;;;13.90;60.90;;;;;;941773;152;27335;-74
2023/06/03 02:58:12;;;;;;;5.17;2.70;;;13.90;61.00;;;;;;941044;151;27355;-76
2023/06/03 03:00:38;;;;;;;4.93;2.97;;;13.90;61.20;;;;;;941337;151;27386;-76
2023/06/03 03:03:04;;;;;;;3.00;2.73;;;13.80;61.10;;;;;;941052;151;27447;-76
2023/06/03 03:05:32;;;;;;;4.57;2.57;;;13.80;61.20;;;;;;941402;151;27349;-76
2023/06/03 03:07:58;;;;;;;4.87;2.73;;;13.80;61.20;;;;;;941803;152;27255;-76
2023/06/03 03:10:24;;;;;;;5.37;2.77;;;13.80;61.50;;;;;;941848;149;27749;-76
2023/06/03 03:12:51;;;;;;;2.80;2.50;;;13.70;61.50;;;;;;941985;151;27356;-76
2023/06/03 03:15:17;;;;;;;5.03;2.80;;;13.70;61.60;;;;;;941195;149;27341;-76
2023/06/03 03:17:44;;;;;;;4.37;2.80;;;13.70;61.70;;;;;;941697;149;27271;-76
2023/06/03 03:20:11;;;;;;;3.67;2.90;;;13.70;61.60;;;;;;941450;151;27310;-76
2023/06/03 03:22:40;;;;;;;5.80;2.47;;;13.70;61.80;;;;;;942036;151;27381;-76
2023/06/03 03:25:07;;;;;;;3.63;2.70;;;13.70;61.90;;;;;;941532;152;27444;-76
2023/06/03 03:27:33;;;;;;;5.30;2.77;;;13.70;62.10;;;;;;941973;151;27341;-76
2023/06/03 03:30:03;;;;;;;5.23;3.07;;;13.60;62.10;;;;;;942293;149;27366;-76
2023/06/03 03:32:29;;;;;;;3.03;2.50;;;13.60;62.00;;;;;;941754;148;27414;-76
2023/06/03 03:35:14;;;;;;;2.60;2.33;;;13.60;62.20;;;;;;941763;151;27340;-76
2023/06/03 03:37:40;;;;;;;4.17;2.10;;;13.60;62.40;;;;;;941095;147;27383;-76
2023/06/03 03:40:19;;;;;;;6.83;2.70;;;13.60;62.40;;;;;;941288;152;27325;-75
2023/06/03 03:42:54;;;;;;;4.27;2.97;;;13.60;62.50;;;;;;941572;151;27395;-76
2023/06/03 03:45:21;;;;;;;3.97;2.40;;;13.60;62.50;;;;;;941829;152;27429;-75
2023/06/03 03:47:50;;;;;;;5.50;2.80;;;13.60;62.30;;;;;;941725;152;27318;-75
2023/06/03 03:50:35;;;;;;;4.93;2.40;;;13.60;62.50;;;;;;941682;149;27368;-75
2023/06/03 03:53:02;;;;;;;4.97;2.57;;;13.60;62.60;;;;;;939971;151;27404;-76
2023/06/03 03:55:28;;;;;;;3.93;2.60;;;13.60;62.40;;;;;;940974;151;27353;-75
2023/06/03 03:57:55;;;;;;;3.03;2.73;;;13.60;62.70;;;;;;941870;151;27329;-77
2023/06/03 04:00:21;;;;;;;2.97;2.60;;;13.60;62.80;;;;;;941459;152;27258;-77
2023/06/03 04:02:49;;;;;;;2.57;2.30;;;13.60;62.80;;;;;;941887;151;27301;-75
2023/06/03 04:05:15;;;;;;;3.27;2.43;;;13.70;62.90;;;;;;941828;152;27437;-75
2023/06/03 04:07:42;;;;;;;3.87;2.70;;;13.70;63.80;;;;;;942308;149;27337;-75
2023/06/03 04:10:09;;;;;;;3.67;2.90;;;13.70;62.80;;;;;;941282;149;27400;-77
2023/06/03 04:12:36;;;;;;;4.00;2.60;;;13.80;63.00;;;;;;940662;149;27325;-77
2023/06/03 04:15:01;;;;;;;3.27;2.57;;;13.80;63.10;;;;;;940580;149;27258;-77
2023/06/03 04:17:28;;;;;;;4.13;2.80;;;13.80;63.20;;;;;;940910;149;27343;-77
2023/06/03 04:19:55;;;;;;;3.43;2.67;;;13.90;63.30;;;;;;941498;151;27402;-77
2023/06/03 04:22:21;;;;;;;3.83;2.40;;;14.00;63.30;;;;;;941708;151;27429;-77
2023/06/03 04:24:47;;;;;;;5.13;2.87;;;14.00;63.20;;;;;;941185;152;27339;-77
2023/06/03 04:27:14;;;;;;;3.40;2.43;;;14.10;63.10;;;;;;940151;152;27297;-77
2023/06/03 04:29:40;;;;;;;4.37;2.53;;;14.10;63.00;;;;;;941716;149;27442;-77
2023/06/03 04:32:07;;;;;;;3.53;2.67;;;14.20;63.00;;;;;;941477;149;27356;-77
2023/06/03 04:34:34;;;;;;;3.37;2.50;;;14.30;63.00;;;;;;941565;152;27357;-77
2023/06/03 04:37:00;;;;;;;5.70;3.23;;;14.40;63.00;;;;;;941917;147;27321;-77
2023/06/03 04:39:27;;;;;;;4.40;2.57;;;14.40;62.90;;;;;;941639;152;27317;-77
2023/06/03 04:41:55;;;;;;;3.77;2.80;;;14.50;62.90;;;;;;940939;151;27325;-77
2023/06/03 04:44:21;;;;;;;3.97;2.43;;;14.60;62.90;;;;;;941552;152;27333;-75
2023/06/03 04:46:49;;;;;;;2.80;2.30;;;14.70;62.80;;;;;;941626;149;27306;-75
2023/06/03 04:49:13;;;;;;;3.00;2.40;;;14.80;62.70;;;;;;941367;149;27313;-75
2023/06/03 04:51:40;;;;;;;3.27;2.37;;;14.90;62.80;;;;;;941938;149;27269;-75
2023/06/03 04:54:06;;;;;;;3.23;2.27;;;15.10;62.60;;;;;;941929;149;27759;-75
2023/06/03 04:56:33;;;;;;;3.85;2.40;;;15.30;62.80;;;;;;941659;151;27347;-75
2023/06/03 04:59:09;;;;;;;2.50;1.98;;;15.50;63.10;;;;;;941752;152;27301;-75
2023/06/03 05:01:26;;;;;;;2.65;1.80;;;15.80;63.50;;;;;;939118;152;27372;-75
2023/06/03 05:03:53;;;;;;;2.40;2.20;;;16.20;64.00;;;;;;941749;152;27324;-75
2023/06/03 05:06:19;;;;;;;2.12;1.77;;;16.70;64.40;;;;;;941090;149;27447;-75
2023/06/03 05:08:47;;;;;;;2.42;2.20;;;17.30;64.60;;;;;;942345;149;27441;-75
2023/06/03 05:11:12;;;;;;;2.20;2.00;;;18.00;64.20;;;;;;941181;149;27254;-75
2023/06/03 05:13:40;;;;;;;3.65;2.27;;;18.60;64.00;;;;;;941538;152;27389;-76
2023/06/03 05:16:06;;;;;;;2.25;1.80;;;19.30;61.80;;;;;;941791;149;27329;-75
2023/06/03 05:18:32;;;;;;;2.00;1.90;;;19.90;60.10;;;;;;941295;149;27446;-75
2023/06/03 05:20:59;;;;;;;2.52;1.70;;;20.40;58.90;;;;;;941808;152;27399;-75
2023/06/03 05:23:25;;;;;;;2.70;1.98;;;20.70;57.90;;;;;;942051;151;27379;-75
2023/06/03 05:25:52;;;;;;;1.90;1.70;;;21.10;57.10;;;;;;941354;152;27887;-76
2023/06/03 05:28:19;;;;;;;2.80;2.00;;;21.40;56.60;;;;;;942125;149;27346;-75
2023/06/03 05:30:45;;;;;;;1.82;1.72;;;21.80;56.40;;;;;;941793;149;27219;-75
2023/06/03 05:33:24;;;;;;;3.60;1.70;;;22.20;56.20;;;;;;941496;151;27310;-76
2023/06/03 05:35:50;;;;;;;1.77;1.67;;;22.60;55.90;;;;;;941010;152;27333;-75
2023/06/03 05:38:17;;;;;;;1.90;1.60;;;23.20;55.60;;;;;;942002;149;27466;-76
2023/06/03 05:40:43;;;;;;;4.00;1.60;;;23.70;54.90;;;;;;941812;151;27331;-75
2023/06/03 05:43:10;;;;;;;2.60;1.60;;;24.30;54.20;;;;;;941766;152;27262;-76
2023/06/03 05:45:37;;;;;;;2.33;1.65;;;24.90;53.50;;;;;;942280;149;27322;-76
2023/06/03 05:48:03;;;;;;;4.17;2.27;;;25.40;52.60;;;;;;942149;149;27305;-75
2023/06/03 05:50:30;;;;;;;1.67;1.57;;;25.90;51.60;;;;;;917884;151;27511;-75
2023/06/03 05:52:57;;;;;;;3.10;1.62;;;26.30;50.70;;;;;;917884;151;27457;-75
2023/06/03 05:55:23;;;;;;;2.00;1.80;;;26.60;50.00;;;;;;917653;151;27304;-75
2023/06/03 05:57:50;;;;;;;1.92;1.70;;;26.90;48.60;;;;;;917498;151;27351;-75
2023/06/03 06:00:16;;;;;;;1.50;1.40;;;27.10;48.00;;;;;;916719;151;27412;-76
2023/06/03 06:02:43;;;;;;;2.95;1.70;;;27.20;47.70;;;;;;968645;145;27402;-76
2023/06/03 06:05:09;;;;;;;2.08;1.62;;;27.30;47.40;;;;;;968794;145;27289;-76
2023/06/03 06:07:36;;;;;;;2.17;1.52;;;27.40;46.90;;;;;;968004;145;27353;-75
2023/06/03 06:10:03;;;;;;;1.77;1.40;;;27.40;46.20;;;;;;967925;145;27357;-75
2023/06/03 06:12:29;;;;;;;2.42;1.50;;;27.40;45.80;;;;;;945300;149;27368;-76
2023/06/03 06:14:56;;;;;;;2.35;1.57;;;27.40;45.50;;;;;;967836;145;27677;-75
2023/06/03 06:17:22;;;;;;;2.67;1.52;;;27.50;45.50;;;;;;968535;145;27344;-75
2023/06/03 06:19:49;;;;;;;1.40;1.27;;;27.60;45.80;;;;;;968459;145;27271;-75
2023/06/03 06:22:15;;;;;;;2.15;1.60;;;27.80;45.90;;;;;;945639;149;27376;-75
2023/06/03 06:24:42;;;;;;;1.62;1.52;;;28.00;45.70;;;;;;945180;149;27363;-75
2023/06/03 06:27:09;;;;;;;1.57;1.45;;;28.30;45.70;;;;;;945453;148;27273;-75
2023/06/03 06:29:35;;;;;;;2.50;1.82;;;28.60;45.30;;;;;;945300;149;27352;-75
2023/06/03 06:32:03;;;;;;;1.98;1.47;;;29.10;45.00;;;;;;945305;149;27402;-75
2023/06/03 06:34:31;;;;;;;1.37;1.27;;;29.40;44.30;;;;;;968214;145;27419;-75
2023/06/03 06:36:55;;;;;;;2.02;1.62;;;29.70;43.50;;;;;;927065;152;27309;-75
2023/06/03 06:39:34;;;;;;;2.10;1.55;;;30.00;43.00;;;;;;944556;149;27342;-75
2023/06/03 06:42:06;;;;;;;2.15;1.67;;;30.20;42.70;;;;;;944424;149;27320;-75
2023/06/03 06:44:33;;;;;;;2.85;1.52;;;30.30;42.20;;;;;;945213;148;27485;-75
2023/06/03 06:46:59;;;;;;;1.20;1.10;;;30.40;40.90;;;;;;943721;148;27432;-75
2023/06/03 06:49:26;;;;;;;1.52;1.15;;;30.40;41.20;;;;;;945311;148;27333;-75
2023/06/03 06:51:53;;;;;;;3.20;1.50;;;30.40;40.90;;;;;;968782;145;27292;-75
2023/06/03 06:54:19;;;;;;;1.77;1.37;;;30.30;40.40;;;;;;944824;149;27356;-75
2023/06/03 06:56:46;;;;;;;1.50;1.40;;;30.20;40.20;;;;;;968576;145;27404;-75
2023/06/03 06:59:12;;;;;;;2.87;1.70;;;30.00;40.10;;;;;;944164;149;27350;-75
2023/06/03 07:01:39;;;;;;;1.82;1.17;;;29.90;40.10;;;;;;925557;152;27487;-75
2023/06/03 07:04:06;;;;;;;1.55;1.40;;;29.70;40.20;;;;;;967508;145;27306;-75
2023/06/03 07:06:32;;;;;;;2.80;1.50;;;29.60;40.20;;;;;;968838;145;27605;-75
2023/06/03 07:08:59;;;;;;;1.50;1.40;;;29.50;40.20;;;;;;968671;145;27322;-75
2023/06/03 07:11:26;;;;;;;1.60;1.45;;;29.60;40.90;;;;;;968480;145;27253;-75
2023/06/03 07:13:52;;;;;;;4.72;2.10;;;29.90;42.00;;;;;;967473;145;27365;-75
2023/06/03 07:16:18;;;;;;;1.85;1.50;;;30.40;42.50;;;;;;968575;145;27872;-76
2023/06/03 07:18:45;;;;;;;1.90;1.62;;;31.20;42.30;;;;;;967947;145;27332;-75
2023/06/03 07:21:12;;;;;;;2.67;1.75;;;31.90;41.80;;;;;;968407;145;26279;-75
2023/06/03 07:23:38;;;;;;;1.70;1.47;;;32.60;41.00;;;;;;967853;145;27315;-75
2023/06/03 07:26:05;;;;;;;3.17;1.98;;;33.30;40.10;;;;;;929780;151;26257;-75
2023/06/03 07:28:32;;;;;;;1.60;1.50;;;33.90;39.80;;;;;;930067;151;26270;-75
2023/06/03 07:30:58;;;;;;;2.87;1.62;;;34.40;39.00;;;;;;967230;145;26239;-75
2023/06/03 07:33:28;;;;;;;2.77;1.37;;;34.90;37.90;;;;;;968231;145;26291;-76
2023/06/03 07:35:54;;;;;;;2.25;1.80;;;35.30;37.20;;;;;;968842;145;26132;-75
2023/06/03 07:38:21;;;;;;;2.87;1.77;;;35.60;37.00;;;;;;927103;150;27471;-76
2023/06/03 07:40:47;;;;;;;4.10;1.92;;;35.80;36.40;;;;;;956780;145;26233;-75
2023/06/03 07:43:14;;;;;;;3.00;1.95;;;36.00;35.60;;;;;;969078;145;26317;-75
2023/06/03 07:45:41;;;;;;;4.62;2.10;;;36.00;35.30;;;;;;968140;145;26306;-75
2023/06/03 07:48:07;;;;;;;2.58;1.98;;;36.00;34.70;;;;;;968894;145;26277;-75
2023/06/03 07:50:34;;;;;;;4.70;2.10;;;36.00;34.60;;;;;;968174;145;26217;-75
2023/06/03 07:53:00;;;;;;;2.10;1.90;;;36.10;35.40;;;;;;968831;145;26253;-75
2023/06/03 07:55:39;;;;;;;2.85;1.80;;;36.20;34.80;;;;;;967395;145;26326;-76
2023/06/03 07:58:06;;;;;;;3.02;1.90;;;36.40;34.80;;;;;;967240;145;26309;-76
2023/06/03 08:00:32;;;;;;;3.80;2.27;;;36.70;35.00;;;;;;968452;145;26205;-76
2023/06/03 08:02:59;;;;;;;2.52;1.70;;;37.00;34.50;;;;;;967820;145;26165;-76
2023/06/03 08:05:26;;;;;;;2.05;1.80;;;37.40;33.90;;;;;;968730;145;27332;-76
2023/06/03 08:07:52;;;;;;;4.08;1.80;;;37.80;33.70;;;;;;966096;145;26318;-75
2023/06/03 08:10:19;;;;;;;2.72;1.70;;;38.10;33.30;;;;;;967800;145;26329;-75
2023/06/03 08:12:45;;;;;;;3.40;2.15;;;38.50;33.10;;;;;;967784;145;26143;-76
2023/06/03 08:15:12;;;;;;;3.37;1.92;;;38.70;32.30;;;;;;968340;145;26237;-75
2023/06/03 08:17:38;;;;;;;2.10;1.80;;;38.80;31.40;;;;;;965260;145;26233;-75
2023/06/03 08:20:09;;;;;;;1.90;1.77;;;38.80;30.90;;;;;;967052;145;27365;-76
2023/06/03 08:22:44;;;;;;;1.92;1.72;;;38.80;30.70;;;;;;967588;145;26252;-76
2023/06/03 08:25:10;;;;;;;2.40;1.50;;;38.70;30.80;;;;;;967791;145;26318;-75
2023/06/03 08:27:37;;;;;;;3.17;1.80;;;38.80;31.20;;;;;;969026;145;26228;-76
2023/06/03 08:30:04;;;;;;;4.60;1.87;;;38.90;31.20;;;;;;968907;145;26244;-76
2023/06/03 08:32:33;;;;;;;3.15;1.55;;;39.10;30.60;;;;;;968522;145;26204;-76
2023/06/03 08:34:59;;;;;;;1.32;1.32;;;39.10;30.00;;;;;;967951;145;26346;-76
2023/06/03 08:37:26;;;;;;;1.60;1.50;;;39.20;29.90;;;;;;968617;145;26229;-76
2023/06/03 08:39:53;;;;;;;2.77;1.90;;;39.10;29.80;;;;;;959708;145;26368;-76
2023/06/03 08:42:22;;;;;;;1.67;1.57;;;39.10;29.60;;;;;;950923;147;26286;-76
2023/06/03 08:45:04;;;;;;;2.20;1.98;;;39.00;28.90;;;;;;926895;150;26299;-76
2023/06/03 08:47:52;;;;;;;2.00;1.80;;;38.90;29.30;;;;;;943165;149;26714;-76
2023/06/03 08:50:18;;;;;;;3.15;2.17;;;38.80;29.50;;;;;;942685;148;26273;-76
2023/06/03 08:52:45;;;;;;;2.10;1.90;;;38.80;29.40;;;;;;942083;149;26265;-76
2023/06/03 08:55:11;;;;;;;2.87;1.87;;;38.70;29.10;;;;;;942543;149;26344;-76
2023/06/03 08:57:41;;;;;;;2.10;1.75;;;38.50;28.70;;;;;;941400;149;26214;-76
2023/06/03 09:00:09;;;;;;;1.92;1.77;;;38.30;28.70;;;;;;940134;149;26398;-77
2023/06/03 09:02:34;;;;;;;1.85;1.75;;;38.10;29.00;;;;;;926010;151;26271;-77
2023/06/03 09:05:03;;;;;;;3.52;1.80;;;37.90;28.80;;;;;;949164;147;26178;-77
2023/06/03 09:07:30;;;;;;;1.90;1.80;;;37.70;28.60;;;;;;950712;147;26235;-77
2023/06/03 09:09:56;;;;;;;2.30;1.60;;;37.50;28.70;;;;;;949037;147;26202;-77
2023/06/03 09:12:23;;;;;;;2.83;1.72;;;37.40;28.50;;;;;;951205;147;26264;-77
2023/06/03 09:14:50;;;;;;;2.52;1.80;;;37.30;28.70;;;;;;951043;147;26522;-77
2023/06/03 09:17:16;;;;;;;2.17;1.87;;;37.20;28.50;;;;;;951667;147;26298;-77
2023/06/03 09:19:43;;;;;;;2.20;1.65;;;37.10;28.70;;;;;;951559;147;26367;-77
2023/06/03 09:22:10;;;;;;;2.05;1.82;;;37.10;28.70;;;;;;951050;147;26257;-77
2023/06/03 09:24:36;;;;;;;2.35;1.98;;;37.10;28.70;;;;;;926185;150;26366;-77
2023/06/03 09:27:03;;;;;;;2.50;1.62;;;37.20;28.80;;;;;;931236;150;26240;-78
2023/06/03 09:29:29;;;;;;;2.02;1.82;;;37.20;28.60;;;;;;950956;147;26147;-78
2023/06/03 09:31:56;;;;;;;1.40;1.30;;;37.30;28.60;;;;;;927789;150;26178;-78
2023/06/03 09:34:22;;;;;;;1.98;1.67;;;37.30;28.60;;;;;;927869;150;26333;-78
2023/06/03 09:36:49;;;;;;;2.10;1.90;;;37.40;28.70;;;;;;926854;150;26271;-78
2023/06/03 09:39:17;;;;;;;2.47;1.85;;;37.40;28.60;;;;;;950705;147;26220;-78
2023/06/03 09:41:42;;;;;;;3.50;2.27;;;37.40;28.40;;;;;;940894;149;26214;-78
2023/06/03 09:44:10;;;;;;;1.77;1.60;;;37.30;28.20;;;;;;941429;149;26288;-78
2023/06/03 09:46:35;;;;;;;2.30;2.10;;;37.30;28.20;;;;;;940850;150;26305;-78
2023/06/03 09:49:09;;;;;;;2.40;1.75;;;37.20;28.10;;;;;;932079;148;27798;-78
2023/06/03 09:51:41;;;;;;;2.08;1.70;;;37.10;28.00;;;;;;921301;150;26375;-78
2023/06/03 09:54:11;;;;;;;2.10;1.90;;;37.10;28.00;;;;;;921799;149;26389;-78
2023/06/03 09:56:36;;;;;;;3.80;2.35;;;37.00;27.90;;;;;;927680;149;27626;-78
2023/06/03 09:59:15;;;;;;;2.47;2.12;;;36.80;27.70;;;;;;926572;151;26330;-78
2023/06/03 10:01:45;;;;;;;3.25;1.98;;;36.60;27.60;;;;;;927968;150;26235;-78
2023/06/03 10:04:10;;;;;;;3.37;1.92;;;36.30;27.70;;;;;;934059;150;26265;-78
2023/06/03 10:06:38;;;;;;;4.42;2.12;;;36.00;27.70;;;;;;949852;147;26212;-78
2023/06/03 10:09:19;;;;;;;2.12;1.87;;;35.70;27.80;;;;;;949901;147;26274;-78
2023/06/03 10:11:48;;;;;;;3.17;2.00;;;35.30;27.90;;;;;;950276;147;27411;-77
2023/06/03 10:14:17;;;;;;;1.80;1.70;;;35.00;28.00;;;;;;951408;147;27333;-78
2023/06/03 10:17:06;;;;;;;2.37;2.17;;;34.60;28.10;;;;;;950837;147;27411;-78
2023/06/03 10:19:35;;;;;;;3.00;2.00;;;34.30;28.00;;;;;;950789;147;27287;-78
2023/06/03 10:22:01;;;;;;;3.08;2.22;;;33.90;28.10;;;;;;951860;147;27369;-78
2023/06/03 10:24:28;;;;;;;3.95;2.40;;;33.60;28.40;;;;;;927641;150;27370;-77
2023/06/03 10:26:54;;;;;;;2.12;1.90;;;33.30;28.50;;;;;;943068;149;27355;-78
2023/06/03 10:29:21;;;;;;;4.40;2.20;;;33.00;28.70;;;;;;943293;149;27295;-78
2023/06/03 10:31:49;;;;;;;2.33;1.98;;;32.80;28.80;;;;;;942768;148;27415;-78
2023/06/03 10:34:15;;;;;;;2.22;2.02;;;32.60;28.90;;;;;;942826;149;27431;-78
2023/06/03 10:36:41;;;;;;;2.40;1.95;;;32.50;29.00;;;;;;946462;149;27854;-78
2023/06/03 10:39:07;;;;;;;2.50;2.22;;;32.40;29.00;;;;;;945615;149;27298;-78
2023/06/03 10:41:34;;;;;;;3.40;2.12;;;32.30;29.10;;;;;;950244;149;27364;-78
2023/06/03 10:44:01;;;;;;;2.52;2.20;;;32.20;29.30;;;;;;953566;150;27410;-78
2023/06/03 10:46:27;;;;;;;3.20;2.25;;;32.00;29.30;;;;;;953654;150;27379;-77
2023/06/03 10:48:54;;;;;;;2.10;1.90;;;31.90;29.40;;;;;;954120;150;27356;-78
2023/06/03 10:51:39;;;;;;;2.30;2.10;;;31.80;29.40;;;;;;954182;150;27321;-77
2023/06/03 10:54:26;;;;;;;2.70;2.17;;;31.60;29.50;;;;;;953392;148;27426;-78
2023/06/03 10:57:06;;;;;;;2.92;1.80;;;31.50;29.80;;;;;;954060;150;26259;-77
2023/06/03 10:59:31;;;;;;;2.33;2.12;;;31.40;29.70;;;;;;952797;150;27479;-78
2023/06/03 11:02:01;;;;;;;2.20;2.10;;;31.30;29.80;;;;;;952172;147;27335;-77
2023/06/03 11:04:31;;;;;;;2.22;1.92;;;31.10;29.90;;;;;;953498;150;27476;-77
2023/06/03 11:06:57;;;;;;;3.25;2.00;;;31.10;30.00;;;;;;952590;150;27458;-77
2023/06/03 11:09:38;;;;;;;3.52;2.22;;;31.00;30.00;;;;;;951520;147;27365;-77
2023/06/03 11:12:14;;;;;;;2.30;2.10;;;30.90;30.20;;;;;;953024;150;27497;-77
2023/06/03 11:14:42;;;;;;;2.10;1.90;;;30.80;30.30;;;;;;952659;150;27322;-77
2023/06/03 11:17:09;;;;;;;3.10;2.08;;;30.80;30.30;;;;;;952188;149;27434;-77
2023/06/03 11:19:45;;;;;;;4.05;2.02;;;30.80;30.30;;;;;;952114;147;27434;-77
2023/06/03 11:22:15;;;;;;;1.75;1.65;;;30.70;30.40;;;;;;952882;150;27421;-77
2023/06/03 11:24:44;;;;;;;2.22;2.02;;;30.60;30.40;;;;;;947448;150;27446;-78
2023/06/03 11:27:13;;;;;;;3.15;2.20;;;30.60;30.70;;;;;;952548;148;27338;-78
2023/06/03 11:29:49;;;;;;;2.50;1.98;;;30.60;30.70;;;;;;950739;147;27342;-77
2023/06/03 11:32:15;;;;;;;3.80;1.92;;;30.70;30.80;;;;;;950635;147;27340;-77
2023/06/03 11:34:42;;;;;;;2.45;1.85;;;30.70;30.90;;;;;;953096;150;27312;-77
2023/06/03 11:37:09;;;;;;;3.30;1.87;;;30.60;30.70;;;;;;954268;150;27286;-77
2023/06/03 11:40:06;;;;;;;2.87;2.15;;;30.60;30.50;;;;;;953974;148;27371;-77
2023/06/03 11:42:33;;;;;;;3.50;1.90;;;30.50;30.90;;;;;;947871;149;27987;-77
2023/06/03 11:45:21;;;;;;;2.30;2.10;;;30.50;31.00;;;;;;942005;148;27913;-77
2023/06/03 11:47:51;;;;;;;1.92;1.82;;;30.40;31.00;;;;;;946524;149;27474;-77
2023/06/03 11:50:17;;;;;;;2.70;2.40;;;30.40;30.90;;;;;;945612;148;27497;-77
2023/06/03 11:52:44;;;;;;;2.87;2.20;;;30.30;30.80;;;;;;946215;148;27434;-77
2023/06/03 11:55:11;;;;;;;2.65;2.30;;;30.30;31.00;;;;;;945218;148;27326;-77
2023/06/03 11:57:37;;;;;;;3.40;1.82;;;30.30;31.00;;;;;;946414;149;27422;-77
2023/06/03 12:00:06;;;;;;;3.20;2.00;;;30.20;31.00;;;;;;946428;149;27888;-78
2023/06/03 12:02:37;;;;;;;2.67;2.20;;;30.30;31.30;;;;;;949694;146;27269;-77
2023/06/03 12:05:06;;;;;;;4.08;2.08;;;30.30;31.30;;;;;;950122;147;27280;-78
2023/06/03 12:07:33;;;;;;;2.40;2.20;;;30.40;31.30;;;;;;949842;147;27465;-78
2023/06/03 12:10:00;;;;;;;2.45;2.25;;;30.50;31.50;;;;;;951112;147;27462;-77
2023/06/03 12:12:26;;;;;;;2.30;2.00;;;30.60;31.50;;;;;;951489;147;27433;-77
2023/06/03 12:14:52;;;;;;;4.58;1.95;;;30.70;31.30;;;;;;927387;150;27345;-77
2023/06/03 12:17:21;;;;;;;2.75;2.10;;;30.80;31.10;;;;;;926835;151;27885;-77
2023/06/03 12:19:45;;;;;;;3.62;2.35;;;30.90;31.10;;;;;;963857;145;27259;-78
2023/06/03 12:22:12;;;;;;;3.30;1.90;;;30.80;30.60;;;;;;962637;146;27866;-78
2023/06/03 12:24:42;;;;;;;3.10;2.60;;;30.80;30.60;;;;;;963935;146;27436;-78
2023/06/03 12:27:11;;;;;;;3.10;2.20;;;30.70;30.70;;;;;;963151;145;27391;-78
2023/06/03 12:29:44;;;;;;;3.42;2.00;;;30.60;30.70;;;;;;963240;145;27362;-78
2023/06/03 12:32:11;;;;;;;2.87;2.10;;;30.50;30.90;;;;;;961692;145;27339;-78
2023/06/03 12:34:37;;;;;;;2.08;1.98;;;30.40;30.80;;;;;;964056;146;27385;-78
2023/06/03 12:37:03;;;;;;;2.27;2.08;;;30.20;30.70;;;;;;963302;146;27268;-78
2023/06/03 12:39:42;;;;;;;2.47;1.95;;;30.10;30.80;;;;;;963282;146;27276;-78
2023/06/03 12:42:11;;;;;;;2.15;1.95;;;30.00;31.00;;;;;;965875;145;27371;-78
2023/06/03 12:44:41;;;;;;;2.25;1.77;;;29.90;31.40;;;;;;951894;148;27423;-77
2023/06/03 12:47:07;;;;;;;2.15;1.98;;;29.90;31.30;;;;;;947855;148;27345;-77
2023/06/03 12:49:34;;;;;;;2.47;2.05;;;29.80;31.30;;;;;;966227;148;27288;-77
2023/06/03 12:52:13;;;;;;;2.83;2.12;;;29.80;31.30;;;;;;966215;148;27351;-77